TimeCST,TemperatureF,Dew PointF,Humidity,Sea Level PressureIn,VisibilityMPH,Wind Direction,Wind SpeedMPH,Gust SpeedMPH,PrecipitationIn,Events,Conditions,WindDirDegrees,DateUTC
12:53 AM,44.1,30.0,58,30.08,10.0,NW,8.1,-,N/A,,Clear,320,2012-11-07 06:53:00
1:53 AM,42.1,30.0,62,30.08,10.0,NW,5.8,-,N/A,,Clear,310,2012-11-07 07:53:00
2:53 AM,41.0,28.9,62,30.08,10.0,West,3.5,-,N/A,,Clear,280,2012-11-07 08:53:00
3:53 AM,39.0,28.9,67,30.08,10.0,WSW,5.8,-,N/A,,Clear,250,2012-11-07 09:53:00
4:53 AM,39.0,30.0,70,30.10,10.0,NW,9.2,-,N/A,,Clear,310,2012-11-07 10:53:00
5:53 AM,39.9,30.0,68,30.11,10.0,NW,10.4,-,N/A,,Clear,320,2012-11-07 11:53:00
6:53 AM,39.0,30.0,70,30.14,10.0,NW,10.4,-,N/A,,Clear,320,2012-11-07 12:53:00
7:53 AM,41.0,30.9,67,30.17,10.0,NW,8.1,-,N/A,,Clear,320,2012-11-07 13:53:00
8:53 AM,45.0,32.0,60,30.18,10.0,North,11.5,-,N/A,,Clear,350,2012-11-07 14:53:00
9:53 AM,46.9,32.0,56,30.19,10.0,NNW,10.4,-,N/A,,Clear,340,2012-11-07 15:53:00
10:53 AM,48.9,33.1,54,30.20,10.0,NW,10.4,-,N/A,,Partly Cloudy,320,2012-11-07 16:53:00
11:53 AM,50.0,32.0,50,30.18,10.0,NNE,6.9,16.1,N/A,,Clear,20,2012-11-07 17:53:00
12:53 PM,51.1,32.0,48,30.15,10.0,North,5.8,-,N/A,,Clear,350,2012-11-07 18:53:00
2:53 PM,54.0,32.0,43,30.12,10.0,Calm,Calm,-,N/A,,Clear,0,2012-11-07 20:53:00
3:53 PM,53.1,33.1,47,30.12,10.0,NE,3.5,-,N/A,,Clear,40,2012-11-07 21:53:00
4:53 PM,51.1,30.9,46,30.12,10.0,Calm,Calm,-,N/A,,Clear,0,2012-11-07 22:53:00
5:53 PM,48.9,32.0,52,30.12,10.0,ESE,4.6,-,N/A,,Clear,120,2012-11-07 23:53:00
7:53 PM,44.1,33.1,65,30.13,10.0,SE,5.8,-,N/A,,Clear,130,2012-11-08 01:53:00
8:53 PM,43.0,33.1,68,30.14,10.0,SE,5.8,-,N/A,,Clear,140,2012-11-08 02:53:00
9:53 PM,42.1,32.0,67,30.14,10.0,SE,6.9,-,N/A,,Clear,140,2012-11-08 03:53:00
10:53 PM,41.0,32.0,70,30.14,10.0,SSE,4.6,-,N/A,,Clear,150,2012-11-08 04:53:00
11:53 PM,39.9,32.0,73,30.14,10.0,SE,6.9,-,N/A,,Clear,140,2012-11-08 05:53:00